sensor_id;sensor_type;location;lat;lon;timestamp;pressure;altitude;pressure_sealevel;temperature;humidity
40954;BME280;26686;50.130;8.710;2023-07-16T00:03:28;99789.31;;;21.44;93.23
40954;BME280;26686;50.130;8.710;2023-07-16T00:08:30;99778.47;;;21.44;94.48
40954;BME280;26686;50.130;8.710;2023-07-16T00:13:31;99738.72;;;21.38;95.52
40954;BME280;26686;50.130;8.710;2023-07-16T00:18:33;99765.53;;;21.33;95.74
40954;BME280;26686;50.130;8.710;2023-07-16T00:23:34;99767.63;;;21.37;95.33
40954;BME280;26686;50.130;8.710;2023-07-16T00:28:35;99748.28;;;21.27;95.76
40954;BME280;26686;50.130;8.710;2023-07-16T00:33:37;99756.38;;;21.21;94.01
40954;BME280;26686;50.130;8.710;2023-07-16T00:38:38;99782.16;;;21.16;93.39
40954;BME280;26686;50.130;8.710;2023-07-16T00:43:41;99767.59;;;21.17;92.94
40954;BME280;26686;50.130;8.710;2023-07-16T00:48:43;99785.06;;;21.15;92.50
40954;BME280;26686;50.130;8.710;2023-07-16T00:53:45;99813.81;;;21.09;92.92
40954;BME280;26686;50.130;8.710;2023-07-16T00:58:47;99810.19;;;20.95;92.29
40954;BME280;26686;50.130;8.710;2023-07-16T01:03:49;99793.75;;;20.90;92.23
40954;BME280;26686;50.130;8.710;2023-07-16T01:08:57;99779.00;;;20.93;91.68
40954;BME280;26686;50.130;8.710;2023-07-16T01:14:00;99776.06;;;20.88;91.79
40954;BME280;26686;50.130;8.710;2023-07-16T01:19:02;99788.53;;;20.89;90.67
40954;BME280;26686;50.130;8.710;2023-07-16T01:29:33;99822.03;;;20.88;90.58
40954;BME280;26686;50.130;8.710;2023-07-16T01:34:37;99821.78;;;20.76;91.30
40954;BME280;26686;50.130;8.710;2023-07-16T01:39:39;99833.66;;;20.75;90.70
40954;BME280;26686;50.130;8.710;2023-07-16T01:44:41;99846.97;;;20.76;90.54
40954;BME280;26686;50.130;8.710;2023-07-16T01:49:42;99840.03;;;20.67;89.98
40954;BME280;26686;50.130;8.710;2023-07-16T01:54:44;99872.72;;;20.72;88.92
40954;BME280;26686;50.130;8.710;2023-07-16T01:59:45;99868.44;;;20.56;89.41
40954;BME280;26686;50.130;8.710;2023-07-16T02:04:48;99872.63;;;20.59;88.77
40954;BME280;26686;50.130;8.710;2023-07-16T02:09:50;99867.22;;;20.59;88.17
40954;BME280;26686;50.130;8.710;2023-07-16T02:14:51;99874.44;;;20.52;88.72
40954;BME280;26686;50.130;8.710;2023-07-16T02:19:53;99879.16;;;20.43;88.72
40954;BME280;26686;50.130;8.710;2023-07-16T02:24:54;99874.34;;;20.38;87.80
40954;BME280;26686;50.130;8.710;2023-07-16T02:29:55;99875.31;;;20.30;88.03
40954;BME280;26686;50.130;8.710;2023-07-16T02:34:57;99883.25;;;20.32;87.16
40954;BME280;26686;50.130;8.710;2023-07-16T02:39:59;99902.94;;;20.26;86.95
40954;BME280;26686;50.130;8.710;2023-07-16T02:45:00;99918.91;;;20.21;87.24
40954;BME280;26686;50.130;8.710;2023-07-16T02:50:02;99919.31;;;20.18;87.15
40954;BME280;26686;50.130;8.710;2023-07-16T02:55:04;99922.38;;;20.14;87.03
40954;BME280;26686;50.130;8.710;2023-07-16T03:00:06;99926.25;;;20.05;87.21
40954;BME280;26686;50.130;8.710;2023-07-16T03:05:07;99932.81;;;19.96;86.72
40954;BME280;26686;50.130;8.710;2023-07-16T03:10:09;99937.91;;;20.06;87.32
40954;BME280;26686;50.130;8.710;2023-07-16T03:15:11;99934.22;;;20.13;87.14
40954;BME280;26686;50.130;8.710;2023-07-16T03:20:12;99940.03;;;20.10;87.18
40954;BME280;26686;50.130;8.710;2023-07-16T03:25:14;99944.97;;;20.07;86.88
40954;BME280;26686;50.130;8.710;2023-07-16T03:30:16;99955.31;;;20.03;86.77
40954;BME280;26686;50.130;8.710;2023-07-16T03:35:18;99966.91;;;19.97;86.64
40954;BME280;26686;50.130;8.710;2023-07-16T03:40:24;99975.41;;;19.94;87.16
40954;BME280;26686;50.130;8.710;2023-07-16T03:45:25;99983.13;;;19.97;86.66
40954;BME280;26686;50.130;8.710;2023-07-16T03:50:27;99975.13;;;19.89;85.64
40954;BME280;26686;50.130;8.710;2023-07-16T03:55:29;99995.97;;;19.95;85.14
40954;BME280;26686;50.130;8.710;2023-07-16T04:00:31;99993.00;;;19.90;85.30
40954;BME280;26686;50.130;8.710;2023-07-16T04:05:34;99996.72;;;19.89;84.88
40954;BME280;26686;50.130;8.710;2023-07-16T04:10:35;99995.16;;;19.80;84.33
40954;BME280;26686;50.130;8.710;2023-07-16T04:15:37;99996.84;;;19.81;83.82
40954;BME280;26686;50.130;8.710;2023-07-16T04:20:38;99999.44;;;19.74;83.73
40954;BME280;26686;50.130;8.710;2023-07-16T04:25:40;99996.75;;;19.59;84.16
40954;BME280;26686;50.130;8.710;2023-07-16T04:30:42;100011.56;;;19.63;84.19
40954;BME280;26686;50.130;8.710;2023-07-16T04:35:43;100018.72;;;19.56;84.19
40954;BME280;26686;50.130;8.710;2023-07-16T04:40:45;100030.19;;;19.58;84.26
40954;BME280;26686;50.130;8.710;2023-07-16T04:45:47;100021.25;;;19.57;83.58
40954;BME280;26686;50.130;8.710;2023-07-16T04:50:48;100019.97;;;19.53;83.28
40954;BME280;26686;50.130;8.710;2023-07-16T04:55:49;100022.84;;;19.52;82.68
40954;BME280;26686;50.130;8.710;2023-07-16T05:00:51;100044.06;;;19.55;82.68
40954;BME280;26686;50.130;8.710;2023-07-16T05:05:52;100029.28;;;19.36;82.52
40954;BME280;26686;50.130;8.710;2023-07-16T05:10:54;100019.13;;;19.23;82.34
40954;BME280;26686;50.130;8.710;2023-07-16T05:15:55;100068.19;;;19.56;81.58
40954;BME280;26686;50.130;8.710;2023-07-16T05:20:57;100065.00;;;19.53;81.06
40954;BME280;26686;50.130;8.710;2023-07-16T05:25:58;100078.31;;;19.69;80.40
40954;BME280;26686;50.130;8.710;2023-07-16T05:31:00;100091.81;;;19.69;79.46
40954;BME280;26686;50.130;8.710;2023-07-16T05:36:02;100097.88;;;19.71;79.03
40954;BME280;26686;50.130;8.710;2023-07-16T05:41:04;100108.00;;;19.69;78.92
40954;BME280;26686;50.130;8.710;2023-07-16T05:46:06;100104.47;;;19.69;79.04
40954;BME280;26686;50.130;8.710;2023-07-16T05:51:07;100105.97;;;19.71;78.10
40954;BME280;26686;50.130;8.710;2023-07-16T05:56:09;100112.38;;;19.70;77.00
40954;BME280;26686;50.130;8.710;2023-07-16T06:01:10;100105.22;;;19.63;78.13
40954;BME280;26686;50.130;8.710;2023-07-16T06:06:12;100113.78;;;19.66;77.12
40954;BME280;26686;50.130;8.710;2023-07-16T06:11:13;100103.66;;;19.68;76.63
40954;BME280;26686;50.130;8.710;2023-07-16T06:16:15;100095.16;;;19.71;75.59
40954;BME280;26686;50.130;8.710;2023-07-16T06:21:17;100121.34;;;19.86;73.27
40954;BME280;26686;50.130;8.710;2023-07-16T06:26:19;100113.91;;;19.88;72.84
40954;BME280;26686;50.130;8.710;2023-07-16T06:31:21;100119.56;;;19.93;72.17
40954;BME280;26686;50.130;8.710;2023-07-16T06:36:24;100123.41;;;19.99;70.67
40954;BME280;26686;50.130;8.710;2023-07-16T06:41:26;100127.47;;;20.09;68.69
40954;BME280;26686;50.130;8.710;2023-07-16T06:46:27;100132.59;;;20.19;68.56
40954;BME280;26686;50.130;8.710;2023-07-16T06:51:29;100131.63;;;20.27;68.09
40954;BME280;26686;50.130;8.710;2023-07-16T06:56:32;100139.25;;;20.38;66.83
40954;BME280;26686;50.130;8.710;2023-07-16T07:01:34;100135.09;;;20.57;66.17
40954;BME280;26686;50.130;8.710;2023-07-16T07:06:36;100138.16;;;20.69;66.00
40954;BME280;26686;50.130;8.710;2023-07-16T07:11:37;100137.03;;;20.63;63.34
40954;BME280;26686;50.130;8.710;2023-07-16T07:16:44;100135.69;;;20.74;64.72
40954;BME280;26686;50.130;8.710;2023-07-16T07:21:45;100136.28;;;20.91;63.43
40954;BME280;26686;50.130;8.710;2023-07-16T07:26:47;100140.34;;;21.02;61.57
40954;BME280;26686;50.130;8.710;2023-07-16T07:31:48;100143.16;;;21.15;60.89
40954;BME280;26686;50.130;8.710;2023-07-16T07:36:50;100148.56;;;21.15;58.35
40954;BME280;26686;50.130;8.710;2023-07-16T07:41:51;100149.34;;;21.09;58.12
40954;BME280;26686;50.130;8.710;2023-07-16T07:46:53;100154.81;;;21.16;59.09
40954;BME280;26686;50.130;8.710;2023-07-16T07:51:54;100153.03;;;21.30;58.24
40954;BME280;26686;50.130;8.710;2023-07-16T07:56:56;100151.09;;;21.45;57.80
40954;BME280;26686;50.130;8.710;2023-07-16T08:01:58;100150.13;;;21.53;56.99
40954;BME280;26686;50.130;8.710;2023-07-16T08:06:59;100155.38;;;21.61;56.48
40954;BME280;26686;50.130;8.710;2023-07-16T08:12:01;100151.53;;;21.77;54.56
40954;BME280;26686;50.130;8.710;2023-07-16T08:17:02;100143.94;;;21.66;52.67
40954;BME280;26686;50.130;8.710;2023-07-16T08:22:04;100157.78;;;21.78;53.66
40954;BME280;26686;50.130;8.710;2023-07-16T08:27:06;100156.16;;;21.83;52.02
40954;BME280;26686;50.130;8.710;2023-07-16T08:32:07;100152.63;;;21.89;52.93
40954;BME280;26686;50.130;8.710;2023-07-16T08:37:09;100165.38;;;21.96;50.26
40954;BME280;26686;50.130;8.710;2023-07-16T08:42:10;100153.72;;;22.02;50.67
40954;BME280;26686;50.130;8.710;2023-07-16T08:47:12;100149.47;;;22.28;49.35
40954;BME280;26686;50.130;8.710;2023-07-16T08:52:14;100160.50;;;22.19;49.44
40954;BME280;26686;50.130;8.710;2023-07-16T08:57:16;100172.31;;;22.05;48.83
40954;BME280;26686;50.130;8.710;2023-07-16T09:02:18;100175.47;;;22.15;48.68
40954;BME280;26686;50.130;8.710;2023-07-16T09:07:20;100178.84;;;22.17;48.76
40954;BME280;26686;50.130;8.710;2023-07-16T09:12:24;100178.84;;;22.17;47.34
40954;BME280;26686;50.130;8.710;2023-07-16T09:17:26;100186.00;;;22.32;48.51
40954;BME280;26686;50.130;8.710;2023-07-16T09:22:29;100202.31;;;22.38;46.52
40954;BME280;26686;50.130;8.710;2023-07-16T09:27:31;100179.41;;;22.54;45.63
40954;BME280;26686;50.130;8.710;2023-07-16T09:32:38;100176.91;;;22.53;46.19
40954;BME280;26686;50.130;8.710;2023-07-16T09:37:41;100190.34;;;22.81;46.48
40954;BME280;26686;50.130;8.710;2023-07-16T09:42:43;100153.16;;;22.62;46.95
40954;BME280;26686;50.130;8.710;2023-07-16T09:47:45;100181.59;;;22.79;47.21
40954;BME280;26686;50.130;8.710;2023-07-16T09:52:47;100183.66;;;22.77;44.93
40954;BME280;26686;50.130;8.710;2023-07-16T09:57:49;100186.97;;;22.66;45.88
40954;BME280;26686;50.130;8.710;2023-07-16T10:02:51;100185.53;;;22.83;45.54
40954;BME280;26686;50.130;8.710;2023-07-16T10:08:00;100181.16;;;22.82;44.93
40954;BME280;26686;50.130;8.710;2023-07-16T10:13:02;100166.41;;;23.11;44.89
40954;BME280;26686;50.130;8.710;2023-07-16T10:18:03;100180.78;;;23.25;42.64
40954;BME280;26686;50.130;8.710;2023-07-16T10:23:12;100187.06;;;23.46;43.59
40954;BME280;26686;50.130;8.710;2023-07-16T10:28:14;100182.25;;;23.61;41.70
40954;BME280;26686;50.130;8.710;2023-07-16T10:33:16;100183.28;;;23.67;41.41
40954;BME280;26686;50.130;8.710;2023-07-16T10:38:17;100172.81;;;23.84;42.86
40954;BME280;26686;50.130;8.710;2023-07-16T10:43:19;100167.31;;;24.11;42.39
40954;BME280;26686;50.130;8.710;2023-07-16T10:48:24;100171.66;;;24.25;42.35
40954;BME280;26686;50.130;8.710;2023-07-16T10:53:26;100180.63;;;24.26;40.66
40954;BME280;26686;50.130;8.710;2023-07-16T10:58:27;100169.69;;;24.39;40.06
40954;BME280;26686;50.130;8.710;2023-07-16T11:03:28;100181.06;;;24.29;39.60
40954;BME280;26686;50.130;8.710;2023-07-16T11:08:30;100181.53;;;24.06;40.52
40954;BME280;26686;50.130;8.710;2023-07-16T11:13:34;100175.28;;;24.06;41.07
40954;BME280;26686;50.130;8.710;2023-07-16T11:18:36;100169.88;;;23.92;41.71
40954;BME280;26686;50.130;8.710;2023-07-16T11:23:38;100166.56;;;23.90;42.16
40954;BME280;26686;50.130;8.710;2023-07-16T11:28:41;100173.00;;;23.96;39.38
40954;BME280;26686;50.130;8.710;2023-07-16T11:33:46;100159.41;;;23.96;40.02
40954;BME280;26686;50.130;8.710;2023-07-16T11:38:48;100160.59;;;24.20;38.62
40954;BME280;26686;50.130;8.710;2023-07-16T11:43:50;100160.16;;;24.23;40.34
40954;BME280;26686;50.130;8.710;2023-07-16T11:48:53;100158.16;;;24.44;37.77
40954;BME280;26686;50.130;8.710;2023-07-16T11:53:56;100159.41;;;24.48;37.74
40954;BME280;26686;50.130;8.710;2023-07-16T11:58:57;100152.66;;;24.57;38.47
40954;BME280;26686;50.130;8.710;2023-07-16T12:03:59;100148.28;;;24.63;38.23
40954;BME280;26686;50.130;8.710;2023-07-16T12:09:01;100131.56;;;24.59;37.83
40954;BME280;26686;50.130;8.710;2023-07-16T12:14:02;100147.69;;;24.86;38.25
40954;BME280;26686;50.130;8.710;2023-07-16T12:19:05;100146.06;;;25.10;37.07
40954;BME280;26686;50.130;8.710;2023-07-16T12:24:06;100136.41;;;25.39;37.32
40954;BME280;26686;50.130;8.710;2023-07-16T12:29:08;100136.13;;;25.66;37.45
40954;BME280;26686;50.130;8.710;2023-07-16T12:34:10;100123.88;;;25.75;36.72
40954;BME280;26686;50.130;8.710;2023-07-16T12:39:11;100125.69;;;25.63;34.51
40954;BME280;26686;50.130;8.710;2023-07-16T12:44:12;100123.88;;;25.75;34.24
40954;BME280;26686;50.130;8.710;2023-07-16T12:49:15;100134.75;;;25.75;34.47
40954;BME280;26686;50.130;8.710;2023-07-16T12:54:16;100126.91;;;25.67;34.60
40954;BME280;26686;50.130;8.710;2023-07-16T12:59:18;100141.41;;;25.61;34.04
40954;BME280;26686;50.130;8.710;2023-07-16T13:04:19;100118.09;;;25.65;34.37
40954;BME280;26686;50.130;8.710;2023-07-16T13:09:21;100128.13;;;25.90;33.87
40954;BME280;26686;50.130;8.710;2023-07-16T13:14:24;100115.19;;;26.04;32.59
40954;BME280;26686;50.130;8.710;2023-07-16T13:19:25;100128.41;;;26.19;33.20
40954;BME280;26686;50.130;8.710;2023-07-16T13:24:27;100132.66;;;25.96;33.01
40954;BME280;26686;50.130;8.710;2023-07-16T13:29:28;100126.56;;;25.94;33.96
40954;BME280;26686;50.130;8.710;2023-07-16T13:34:30;100124.31;;;25.91;32.82
40954;BME280;26686;50.130;8.710;2023-07-16T13:39:31;100123.88;;;25.75;33.60
40954;BME280;26686;50.130;8.710;2023-07-16T13:44:33;100142.81;;;25.70;34.18
40954;BME280;26686;50.130;8.710;2023-07-16T13:49:34;100134.59;;;25.52;33.90
40954;BME280;26686;50.130;8.710;2023-07-16T13:54:36;100126.28;;;25.47;34.00
40954;BME280;26686;50.130;8.710;2023-07-16T13:59:41;100129.59;;;25.49;34.13
40954;BME280;26686;50.130;8.710;2023-07-16T14:04:43;100132.75;;;25.46;34.49
40954;BME280;26686;50.130;8.710;2023-07-16T14:09:45;100128.56;;;25.68;33.90
40954;BME280;26686;50.130;8.710;2023-07-16T14:14:47;100116.13;;;25.54;34.52
40954;BME280;26686;50.130;8.710;2023-07-16T14:19:49;100124.00;;;25.62;34.31
40954;BME280;26686;50.130;8.710;2023-07-16T14:24:51;100123.72;;;25.70;34.64
40954;BME280;26686;50.130;8.710;2023-07-16T14:29:52;100123.19;;;25.62;34.67
40954;BME280;26686;50.130;8.710;2023-07-16T14:35:06;100114.59;;;25.58;34.93
40954;BME280;26686;50.130;8.710;2023-07-16T14:40:22;100135.81;;;25.56;35.05
40954;BME280;26686;50.130;8.710;2023-07-16T14:45:23;100120.38;;;25.50;34.16
40954;BME280;26686;50.130;8.710;2023-07-16T14:50:26;100130.44;;;25.49;34.49
40954;BME280;26686;50.130;8.710;2023-07-16T14:55:27;100125.13;;;25.36;33.90
40954;BME280;26686;50.130;8.710;2023-07-16T15:00:29;100116.78;;;25.31;34.55
40954;BME280;26686;50.130;8.710;2023-07-16T15:05:31;100119.69;;;25.29;34.65
40954;BME280;26686;50.130;8.710;2023-07-16T15:10:32;100121.84;;;25.20;33.71
40954;BME280;26686;50.130;8.710;2023-07-16T15:15:34;100119.44;;;25.12;34.28
40954;BME280;26686;50.130;8.710;2023-07-16T15:20:35;100113.03;;;25.00;34.43
40954;BME280;26686;50.130;8.710;2023-07-16T15:25:37;100113.28;;;24.98;34.34
40954;BME280;26686;50.130;8.710;2023-07-16T15:30:41;100110.25;;;25.06;34.87
40954;BME280;26686;50.130;8.710;2023-07-16T15:35:42;100092.31;;;24.99;33.92
40954;BME280;26686;50.130;8.710;2023-07-16T15:40:44;100103.13;;;25.05;34.35
40954;BME280;26686;50.130;8.710;2023-07-16T15:45:47;100092.09;;;25.00;34.44
40954;BME280;26686;50.130;8.710;2023-07-16T15:50:56;100100.81;;;25.09;34.47
40954;BME280;26686;50.130;8.710;2023-07-16T15:55:57;100104.59;;;25.08;33.87
40954;BME280;26686;50.130;8.710;2023-07-16T16:00:59;100105.84;;;25.05;34.60
40954;BME280;26686;50.130;8.710;2023-07-16T16:06:00;100099.53;;;25.12;35.55
40954;BME280;26686;50.130;8.710;2023-07-16T16:11:03;100095.59;;;25.08;33.79
40954;BME280;26686;50.130;8.710;2023-07-16T16:16:04;100086.75;;;25.12;34.42
40954;BME280;26686;50.130;8.710;2023-07-16T16:21:08;100097.28;;;25.09;33.57
40954;BME280;26686;50.130;8.710;2023-07-16T16:26:10;100091.81;;;25.09;33.90
40954;BME280;26686;50.130;8.710;2023-07-16T16:31:11;100070.09;;;25.02;34.75
40954;BME280;26686;50.130;8.710;2023-07-16T16:36:13;100078.81;;;25.11;34.68
40954;BME280;26686;50.130;8.710;2023-07-16T16:41:15;100089.69;;;25.11;34.21
40954;BME280;26686;50.130;8.710;2023-07-16T16:46:17;100087.56;;;25.13;34.16
40954;BME280;26686;50.130;8.710;2023-07-16T16:51:19;100085.03;;;25.18;34.40
40954;BME280;26686;50.130;8.710;2023-07-16T16:56:21;100080.03;;;25.15;34.38
40954;BME280;26686;50.130;8.710;2023-07-16T17:01:22;100077.91;;;25.17;34.26
40954;BME280;26686;50.130;8.710;2023-07-16T17:06:24;100091.97;;;25.14;34.66
40954;BME280;26686;50.130;8.710;2023-07-16T17:11:25;100090.75;;;25.10;34.43
40954;BME280;26686;50.130;8.710;2023-07-16T17:16:27;100085.75;;;25.06;34.61
40954;BME280;26686;50.130;8.710;2023-07-16T17:21:29;100079.72;;;25.04;33.92
40954;BME280;26686;50.130;8.710;2023-07-16T17:26:31;100086.38;;;25.09;34.47
40954;BME280;26686;50.130;8.710;2023-07-16T17:31:32;100092.88;;;25.08;34.05
40954;BME280;26686;50.130;8.710;2023-07-16T17:36:35;100093.47;;;25.10;34.47
40954;BME280;26686;50.130;8.710;2023-07-16T17:41:36;100091.81;;;25.09;34.93
40954;BME280;26686;50.130;8.710;2023-07-16T17:46:39;100090.97;;;25.08;35.29
40954;BME280;26686;50.130;8.710;2023-07-16T17:51:41;100076.44;;;24.96;35.51
40954;BME280;26686;50.130;8.710;2023-07-16T17:56:42;100084.38;;;24.97;35.10
40954;BME280;26686;50.130;8.710;2023-07-16T18:01:46;100099.47;;;24.93;34.98
40954;BME280;26686;50.130;8.710;2023-07-16T18:06:48;100099.31;;;24.88;35.33
40954;BME280;26686;50.130;8.710;2023-07-16T18:11:49;100100.22;;;24.82;36.29
40954;BME280;26686;50.130;8.710;2023-07-16T18:16:51;100103.38;;;24.79;36.46
40954;BME280;26686;50.130;8.710;2023-07-16T18:21:53;100087.97;;;24.66;36.76
40954;BME280;26686;50.130;8.710;2023-07-16T18:27:14;100101.53;;;24.73;35.85
40954;BME280;26686;50.130;8.710;2023-07-16T18:32:16;100098.03;;;24.65;36.44
40954;BME280;26686;50.130;8.710;2023-07-16T18:37:18;100103.69;;;24.64;36.60
40954;BME280;26686;50.130;8.710;2023-07-16T18:42:22;100106.41;;;24.57;36.18
40954;BME280;26686;50.130;8.710;2023-07-16T18:47:29;100111.03;;;24.50;36.39
40954;BME280;26686;50.130;8.710;2023-07-16T18:52:30;100089.03;;;24.26;36.90
40954;BME280;26686;50.130;8.710;2023-07-16T18:57:34;100114.47;;;24.39;36.62
40954;BME280;26686;50.130;8.710;2023-07-16T19:02:35;100124.53;;;24.38;37.08
40954;BME280;26686;50.130;8.710;2023-07-16T19:07:37;100115.34;;;24.32;36.65
40954;BME280;26686;50.130;8.710;2023-07-16T19:12:39;100126.03;;;24.27;37.38
40954;BME280;26686;50.130;8.710;2023-07-16T19:17:40;100133.16;;;24.28;38.08
40954;BME280;26686;50.130;8.710;2023-07-16T19:22:42;100132.53;;;24.26;38.05
40954;BME280;26686;50.130;8.710;2023-07-16T19:27:46;100134.25;;;24.21;38.03
40954;BME280;26686;50.130;8.710;2023-07-16T19:32:48;100144.72;;;24.17;38.03
40954;BME280;26686;50.130;8.710;2023-07-16T19:37:49;100141.19;;;24.10;37.79
40954;BME280;26686;50.130;8.710;2023-07-16T19:42:51;100144.56;;;23.98;37.98
40954;BME280;26686;50.130;8.710;2023-07-16T19:47:52;100155.69;;;23.90;37.97
40954;BME280;26686;50.130;8.710;2023-07-16T19:52:54;100158.63;;;23.89;38.76
40954;BME280;26686;50.130;8.710;2023-07-16T19:57:56;100150.88;;;23.79;38.68
40954;BME280;26686;50.130;8.710;2023-07-16T20:02:57;100170.31;;;23.76;39.21
40954;BME280;26686;50.130;8.710;2023-07-16T20:07:59;100167.84;;;23.68;39.41
40954;BME280;26686;50.130;8.710;2023-07-16T20:13:00;100178.06;;;23.65;40.24
40954;BME280;26686;50.130;8.710;2023-07-16T20:18:06;100183.31;;;23.60;39.75
40954;BME280;26686;50.130;8.710;2023-07-16T20:23:08;100179.13;;;23.64;40.10
40954;BME280;26686;50.130;8.710;2023-07-16T20:28:16;100186.03;;;23.60;40.44
40954;BME280;26686;50.130;8.710;2023-07-16T20:33:18;100184.78;;;23.56;40.60
40954;BME280;26686;50.130;8.710;2023-07-16T20:38:19;100184.56;;;23.51;40.17
40954;BME280;26686;50.130;8.710;2023-07-16T20:43:21;100187.06;;;23.46;40.61
40954;BME280;26686;50.130;8.710;2023-07-16T20:48:23;100183.75;;;23.44;41.45
40954;BME280;26686;50.130;8.710;2023-07-16T20:53:25;100184.16;;;23.41;41.29
40954;BME280;26686;50.130;8.710;2023-07-16T20:58:27;100194.59;;;23.37;42.29
40954;BME280;26686;50.130;8.710;2023-07-16T21:03:28;100186.03;;;23.34;41.61
40954;BME280;26686;50.130;8.710;2023-07-16T21:08:31;100180.41;;;23.28;41.03
40954;BME280;26686;50.130;8.710;2023-07-16T21:13:33;100181.44;;;23.27;41.31
40954;BME280;26686;50.130;8.710;2023-07-16T21:18:35;100181.63;;;23.19;41.47
40954;BME280;26686;50.130;8.710;2023-07-16T21:23:36;100193.34;;;23.20;41.84
40954;BME280;26686;50.130;8.710;2023-07-16T21:28:38;100193.78;;;23.17;41.85
40954;BME280;26686;50.130;8.710;2023-07-16T21:33:43;100192.94;;;23.09;42.23
40954;BME280;26686;50.130;8.710;2023-07-16T21:38:45;100196.63;;;23.08;43.51
40954;BME280;26686;50.130;8.710;2023-07-16T21:43:46;100205.41;;;23.04;43.70
40954;BME280;26686;50.130;8.710;2023-07-16T21:48:48;100208.13;;;23.04;43.96
40954;BME280;26686;50.130;8.710;2023-07-16T21:53:49;100207.50;;;23.02;43.92
40954;BME280;26686;50.130;8.710;2023-07-16T21:58:51;100213.34;;;22.99;43.90
40954;BME280;26686;50.130;8.710;2023-07-16T22:03:53;100217.50;;;22.94;44.43
40954;BME280;26686;50.130;8.710;2023-07-16T22:08:54;100216.66;;;22.87;44.54
40954;BME280;26686;50.130;8.710;2023-07-16T22:13:56;100221.25;;;22.87;44.59
40954;BME280;26686;50.130;8.710;2023-07-16T22:18:57;100201.19;;;22.74;45.08
40954;BME280;26686;50.130;8.710;2023-07-16T22:23:59;100217.06;;;22.77;45.23
40954;BME280;26686;50.130;8.710;2023-07-16T22:29:00;100219.53;;;22.72;45.40
40954;BME280;26686;50.130;8.710;2023-07-16T22:34:02;100214.50;;;22.69;45.56
40954;BME280;26686;50.130;8.710;2023-07-16T22:39:04;100211.19;;;22.67;45.92
40954;BME280;26686;50.130;8.710;2023-07-16T22:44:05;100218.66;;;22.65;45.57
40954;BME280;26686;50.130;8.710;2023-07-16T22:49:07;100222.19;;;22.52;45.42
40954;BME280;26686;50.130;8.710;2023-07-16T22:54:08;100216.50;;;22.40;46.40
40954;BME280;26686;50.130;8.710;2023-07-16T22:59:10;100214.47;;;22.49;46.47
40954;BME280;26686;50.130;8.710;2023-07-16T23:04:11;100221.53;;;22.50;45.65
40954;BME280;26686;50.130;8.710;2023-07-16T23:09:13;100229.03;;;22.48;46.12
40954;BME280;26686;50.130;8.710;2023-07-16T23:14:15;100158.34;;;22.08;46.24
40954;BME280;26686;50.130;8.710;2023-07-16T23:19:16;100224.03;;;22.45;45.93
40954;BME280;26686;50.130;8.710;2023-07-16T23:24:18;100232.16;;;22.45;46.54
40954;BME280;26686;50.130;8.710;2023-07-16T23:29:19;100226.13;;;22.43;46.89
40954;BME280;26686;50.130;8.710;2023-07-16T23:34:21;100225.25;;;22.36;46.89
40954;BME280;26686;50.130;8.710;2023-07-16T23:39:22;100222.09;;;22.32;46.91
40954;BME280;26686;50.130;8.710;2023-07-16T23:44:25;100219.94;;;22.28;46.43
40954;BME280;26686;50.130;8.710;2023-07-16T23:49:26;100233.47;;;22.21;46.28
40954;BME280;26686;50.130;8.710;2023-07-16T23:54:30;100225.97;;;22.16;46.48
40954;BME280;26686;50.130;8.710;2023-07-16T23:59:31;100221.34;;;22.17;47.01
